KMOX/MOX METAR and TAF weather

Enter ICAO airport designator
Station Type Date Time Source
KMOX METAR 2019/12/08 06:55 UTC NOAA

KMOX 080655Z AUTO 28007KT 10SM CLR M03/M04 A2960 RMK AO2


Station Type Date Time Source
KMOX Decoded METAR 2019/12/08 06:55 UTC NOAA

Morris, Morris Municipal Airport, MN, United States (KMOX) 45-34N 095-58W
Dec 08, 2019 - 01:55 AM EST / 2019.12.08 0655 UTC
Wind: from the W (280 degrees) at 8 MPH (7 KT):0
Visibility: 10 mile(s):0
Sky conditions: clear
Temperature: 26 F (-3 C)
Windchill: 17 F (-8 C):1
Dew Point: 24 F (-4 C)
Relative Humidity: 92%
Pressure (altimeter): 29.6 in. Hg (1002 hPa)
ob: KMOX 080655Z AUTO 28007KT 10SM CLR M03/M04 A2960 RMK AO2
cycle: 7

Station Type Date Time Source
KMOX TAF UTC NOAA

Error!

Example: see airport list